createdAt,value
2022-09-11T00:01:25.446Z,27.44
2022-09-11T00:04:28.612Z,27.27
2022-09-11T00:07:31.701Z,26.81
2022-09-11T00:10:38.650Z,26.68
2022-09-11T00:13:41.798Z,26.99
2022-09-11T00:16:46.638Z,26.97
2022-09-11T00:19:49.709Z,26.79
2022-09-11T00:22:53.796Z,26.81
2022-09-11T00:25:57.097Z,26.72
2022-09-11T00:29:02.797Z,26.10
2022-09-11T00:32:06.007Z,26.34
2022-09-11T00:35:11.167Z,26.30
2022-09-11T00:38:17.259Z,26.39
2022-09-11T00:41:35.960Z,26.48
2022-09-11T00:44:38.981Z,26.33
2022-09-11T00:47:42.001Z,26.37
2022-09-11T00:50:45.462Z,26.60
2022-09-11T00:53:49.922Z,26.62
2022-09-11T00:56:54.029Z,26.66
2022-09-11T00:59:59.077Z,26.75
2022-09-11T01:03:02.680Z,26.48
2022-09-11T01:06:06.348Z,26.25
2022-09-11T01:09:09.457Z,26.22
2022-09-11T01:12:50.553Z,26.30
2022-09-11T01:15:59.653Z,26.32
2022-09-11T01:19:21.723Z,26.28
2022-09-11T01:22:43.006Z,26.13
2022-09-11T01:26:04.329Z,26.09
2022-09-11T01:29:19.646Z,25.92
2022-09-11T01:32:28.761Z,25.93
2022-09-11T01:35:51.192Z,26.22
2022-09-11T01:38:57.598Z,26.05
2022-09-11T01:42:06.743Z,26.03
2022-09-11T01:45:12.349Z,25.71
2022-09-11T01:48:19.591Z,25.63
2022-09-11T01:51:27.153Z,25.80
2022-09-11T01:54:53.595Z,25.59
2022-09-11T01:58:06.745Z,25.66
2022-09-11T02:01:34.301Z,25.91
2022-09-11T02:04:50.025Z,25.40
2022-09-11T02:08:12.417Z,25.28
2022-09-11T02:11:16.541Z,25.87
2022-09-11T02:14:27.688Z,25.89
2022-09-11T02:17:48.797Z,25.76
2022-09-11T02:20:52.299Z,25.71
2022-09-11T02:23:58.350Z,25.51
2022-09-11T02:27:17.070Z,25.73
2022-09-11T02:30:20.181Z,25.64
2022-09-11T02:33:34.953Z,25.79
2022-09-11T02:37:16.338Z,25.66
2022-09-11T02:40:43.863Z,25.39
2022-09-11T02:44:12.011Z,25.72
2022-09-11T02:47:35.766Z,25.70
2022-09-11T02:51:20.020Z,25.58
2022-09-11T02:54:50.894Z,25.73
2022-09-11T02:58:09.485Z,25.48
2022-09-11T03:01:12.735Z,25.44
2022-09-11T03:04:15.817Z,25.59
2022-09-11T03:07:19.200Z,25.47
2022-09-11T03:10:23.188Z,25.17
2022-09-11T03:13:26.259Z,24.68
2022-09-11T03:16:31.967Z,24.95
2022-09-11T03:19:35.300Z,25.08
2022-09-11T03:22:38.319Z,25.17
2022-09-11T03:25:42.044Z,25.06
2022-09-11T03:28:45.139Z,25.22
2022-09-11T03:31:48.530Z,25.09
2022-09-11T03:34:51.905Z,25.11
2022-09-11T03:37:55.481Z,24.89
2022-09-11T03:40:58.520Z,24.73
2022-09-11T03:44:01.749Z,24.88
2022-09-11T03:47:04.901Z,25.04
2022-09-11T03:50:09.749Z,25.03
2022-09-11T03:53:13.156Z,25.04
2022-09-11T03:56:16.251Z,25.17
2022-09-11T03:59:19.303Z,24.82
2022-09-11T04:02:22.421Z,24.71
2022-09-11T04:05:25.485Z,24.61
2022-09-11T04:08:28.772Z,24.79
2022-09-11T04:11:36.766Z,24.83
2022-09-11T04:14:40.426Z,24.70
2022-09-11T04:17:43.447Z,24.68
2022-09-11T04:20:46.555Z,24.79
2022-09-11T04:23:53.476Z,24.99
2022-09-11T04:27:00.644Z,24.80
2022-09-11T04:30:05.266Z,24.80
2022-09-11T04:33:08.676Z,24.49
2022-09-11T04:36:14.000Z,24.50
2022-09-11T04:39:17.091Z,24.21
2022-09-11T04:42:20.137Z,23.96
2022-09-11T04:45:23.314Z,24.33
2022-09-11T04:48:26.394Z,24.44
2022-09-11T04:51:34.566Z,24.54
2022-09-11T04:54:37.585Z,24.73
2022-09-11T04:57:41.012Z,24.40
2022-09-11T05:00:44.039Z,24.29
2022-09-11T05:03:47.106Z,24.58
2022-09-11T05:06:50.180Z,24.48
2022-09-11T05:09:53.262Z,24.28
2022-09-11T05:12:57.326Z,24.31
2022-09-11T05:16:08.535Z,24.45
2022-09-11T05:19:11.751Z,24.41
2022-09-11T05:22:14.751Z,24.29
2022-09-11T05:25:18.919Z,24.37
2022-09-11T05:28:22.141Z,24.34
2022-09-11T05:31:25.756Z,24.26
2022-09-11T05:34:29.020Z,24.21
2022-09-11T05:37:32.065Z,24.23
2022-09-11T05:40:35.095Z,24.37
2022-09-11T05:43:39.089Z,24.32
2022-09-11T05:46:42.220Z,24.23
2022-09-11T05:49:45.226Z,24.11
2022-09-11T05:52:48.595Z,24.20
2022-09-11T05:55:52.556Z,24.19
2022-09-11T05:58:55.851Z,24.41
2022-09-11T06:01:58.861Z,24.37
2022-09-11T06:05:01.989Z,24.47
2022-09-11T06:08:05.963Z,24.06
2022-09-11T06:11:09.561Z,24.13
2022-09-11T06:14:13.722Z,24.23
2022-09-11T06:17:16.831Z,24.21
2022-09-11T06:20:20.072Z,24.13
2022-09-11T06:23:23.665Z,24.34
2022-09-11T06:26:27.252Z,24.29
2022-09-11T06:29:30.379Z,24.20
2022-09-11T06:32:33.358Z,23.93
2022-09-11T06:35:36.658Z,24.05
2022-09-11T06:38:39.707Z,24.00
2022-09-11T06:41:42.793Z,24.07
2022-09-11T06:44:48.871Z,23.97
2022-09-11T06:47:53.766Z,23.94
2022-09-11T06:50:56.940Z,24.14
2022-09-11T06:54:00.623Z,23.96
2022-09-11T06:57:03.631Z,24.08
2022-09-11T07:00:07.304Z,23.89
2022-09-11T07:03:14.754Z,23.81
2022-09-11T07:06:23.005Z,23.90
2022-09-11T07:09:26.045Z,23.86
2022-09-11T07:12:29.199Z,23.72
2022-09-11T07:15:32.332Z,23.93
2022-09-11T07:18:39.927Z,23.97
2022-09-11T07:21:44.100Z,23.96
2022-09-11T07:24:50.112Z,24.05
2022-09-11T07:27:53.263Z,24.13
2022-09-11T07:31:07.590Z,24.17
2022-09-11T07:34:11.559Z,24.12
2022-09-11T07:37:15.390Z,24.18
2022-09-11T07:40:20.817Z,24.18
2022-09-11T07:43:23.957Z,23.98
2022-09-11T07:46:27.093Z,23.99
2022-09-11T07:49:30.115Z,23.87
2022-09-11T07:52:33.582Z,23.83
2022-09-11T07:55:36.658Z,23.68
2022-09-11T07:58:36.040Z,23.70
2022-09-11T08:01:39.415Z,23.54
2022-09-11T08:04:44.444Z,23.42
2022-09-11T08:07:47.505Z,23.85
2022-09-11T08:10:50.605Z,23.38
2022-09-11T08:13:56.354Z,23.36
2022-09-11T08:16:59.361Z,23.44
2022-09-11T08:20:02.654Z,23.41
2022-09-11T08:23:05.887Z,23.60
2022-09-11T08:26:11.590Z,23.63
2022-09-11T08:29:14.672Z,23.66
2022-09-11T08:32:17.773Z,23.69
2022-09-11T08:35:22.222Z,23.39
2022-09-11T08:38:25.656Z,23.31
2022-09-11T08:41:38.953Z,22.96
2022-09-11T08:44:52.422Z,23.19
2022-09-11T08:47:57.634Z,23.20
2022-09-11T08:51:00.701Z,23.36
2022-09-11T08:54:04.513Z,23.44
2022-09-11T08:57:44.318Z,23.66
2022-09-11T09:01:05.442Z,23.20
2022-09-11T09:04:33.152Z,23.25
2022-09-11T09:07:42.315Z,23.35
2022-09-11T09:10:58.340Z,23.30
2022-09-11T09:14:33.528Z,23.24
2022-09-11T09:17:43.174Z,23.29
2022-09-11T09:20:53.550Z,23.21
2022-09-11T09:23:57.852Z,23.25
2022-09-11T09:27:02.907Z,23.27
2022-09-11T09:30:08.196Z,23.16
2022-09-11T09:33:23.148Z,23.27
2022-09-11T09:36:48.242Z,23.35
2022-09-11T09:39:51.769Z,23.18
2022-09-11T09:43:08.895Z,22.98
2022-09-11T09:46:26.902Z,23.02
2022-09-11T09:49:38.830Z,22.96
2022-09-11T09:52:42.867Z,22.85
2022-09-11T09:55:46.095Z,22.82
2022-09-11T09:59:03.236Z,22.92
2022-09-11T10:02:06.664Z,23.05
2022-09-11T10:05:33.116Z,23.20
2022-09-11T10:08:37.533Z,22.61
2022-09-11T10:11:40.546Z,22.97
2022-09-11T10:14:52.185Z,22.92
2022-09-11T10:18:17.726Z,22.91
2022-09-11T10:21:31.402Z,23.05
2022-09-11T10:24:34.926Z,22.91
2022-09-11T10:27:59.567Z,22.57
2022-09-11T10:31:04.351Z,22.51
2022-09-11T10:34:07.641Z,22.46
2022-09-11T10:37:13.774Z,22.57
2022-09-11T10:40:24.742Z,22.49
2022-09-11T10:43:36.831Z,22.85
2022-09-11T10:46:41.424Z,22.83
2022-09-11T10:49:45.472Z,22.97
2022-09-11T10:53:03.466Z,22.91
2022-09-11T10:56:08.239Z,22.36
2022-09-11T10:59:18.328Z,22.37
2022-09-11T11:02:31.097Z,22.76
2022-09-11T11:05:55.658Z,22.77
2022-09-11T11:09:16.875Z,22.87
2022-09-11T11:12:33.552Z,22.91
2022-09-11T11:15:51.854Z,22.94
2022-09-11T11:19:05.546Z,22.85
2022-09-11T11:22:12.841Z,22.86
2022-09-11T11:25:37.152Z,22.87
2022-09-11T11:28:49.415Z,22.89
2022-09-11T11:32:14.495Z,22.84
2022-09-11T11:35:22.698Z,22.89
2022-09-11T11:38:40.808Z,22.68
2022-09-11T11:41:48.641Z,22.78
2022-09-11T11:45:03.611Z,22.98
2022-09-11T11:48:14.030Z,22.98
2022-09-11T11:51:23.830Z,22.68
2022-09-11T11:54:45.059Z,22.80
2022-09-11T11:58:20.466Z,22.81
2022-09-11T12:02:04.921Z,22.95
2022-09-11T12:05:23.193Z,22.73
2022-09-11T12:08:26.763Z,22.84
2022-09-11T12:11:32.523Z,22.99
2022-09-11T12:14:35.635Z,23.04
2022-09-11T12:17:39.147Z,22.91
2022-09-11T12:20:44.275Z,22.79
2022-09-11T12:23:47.396Z,22.85
2022-09-11T12:27:28.743Z,23.01
2022-09-11T12:31:02.340Z,23.06
2022-09-11T12:34:15.922Z,22.83
2022-09-11T12:37:33.551Z,23.14
2022-09-11T12:40:39.286Z,23.09
2022-09-11T12:43:42.309Z,23.21
2022-09-11T12:46:45.262Z,23.24
2022-09-11T12:49:55.754Z,23.49
2022-09-11T12:52:59.243Z,23.58
2022-09-11T12:56:05.243Z,23.43
2022-09-11T12:59:09.226Z,23.54
2022-09-11T13:02:35.307Z,23.65
2022-09-11T13:05:39.724Z,23.38
2022-09-11T13:09:01.997Z,23.49
2022-09-11T13:12:26.685Z,23.51
2022-09-11T13:15:43.674Z,23.41
2022-09-11T13:18:46.889Z,23.72
2022-09-11T13:21:51.545Z,23.98
2022-09-11T13:25:25.891Z,23.90
2022-09-11T13:28:32.090Z,24.31
2022-09-11T13:31:36.703Z,24.37
2022-09-11T13:34:43.972Z,24.41
2022-09-11T13:37:52.731Z,24.63
2022-09-11T13:40:56.655Z,24.12
2022-09-11T13:44:01.316Z,24.94
2022-09-11T13:47:04.586Z,25.16
2022-09-11T13:50:14.210Z,25.34
2022-09-11T13:53:19.382Z,25.79
2022-09-11T13:56:37.814Z,25.72
2022-09-11T13:59:49.086Z,25.95
2022-09-11T14:02:52.428Z,25.97
2022-09-11T14:06:10.869Z,25.22
2022-09-11T14:09:19.400Z,25.26
2022-09-11T14:12:22.577Z,25.61
2022-09-11T14:15:35.890Z,25.63
2022-09-11T14:18:51.379Z,25.70
2022-09-11T14:21:55.908Z,26.11
2022-09-11T14:25:11.070Z,26.30
2022-09-11T14:28:37.927Z,26.58
2022-09-11T14:31:43.144Z,26.75
2022-09-11T14:34:47.141Z,27.38
2022-09-11T14:37:50.229Z,26.86
2022-09-11T14:41:00.077Z,26.85
2022-09-11T14:44:03.337Z,27.23
2022-09-11T14:47:07.721Z,26.86
2022-09-11T14:50:15.684Z,26.98
2022-09-11T14:53:32.246Z,27.26
2022-09-11T14:56:35.257Z,27.13
2022-09-11T14:59:38.858Z,26.64
2022-09-11T15:02:41.952Z,27.01
2022-09-11T15:05:45.969Z,27.50
2022-09-11T15:08:49.100Z,28.18
2022-09-11T15:11:52.122Z,28.00
2022-09-11T15:14:57.611Z,28.40
2022-09-11T15:18:01.710Z,27.86
2022-09-11T15:21:05.220Z,28.44
2022-09-11T15:24:08.334Z,28.63
2022-09-11T15:27:11.668Z,29.05
2022-09-11T15:30:17.697Z,29.15
2022-09-11T15:33:20.742Z,28.98
2022-09-11T15:36:23.930Z,29.37
2022-09-11T15:39:27.253Z,29.35
2022-09-11T15:42:30.542Z,29.27
2022-09-11T15:45:33.747Z,29.39
2022-09-11T15:48:36.773Z,29.74
2022-09-11T15:51:40.733Z,30.33
2022-09-11T15:54:43.892Z,30.13
2022-09-11T15:57:46.978Z,29.86
2022-09-11T16:00:50.007Z,30.30
2022-09-11T16:03:57.084Z,30.24
2022-09-11T16:07:00.348Z,30.95
2022-09-11T16:10:03.444Z,30.92
2022-09-11T16:13:07.758Z,30.45
2022-09-11T16:16:10.991Z,31.15
2022-09-11T16:19:19.719Z,30.33
2022-09-11T16:22:22.882Z,29.80
2022-09-11T16:25:26.933Z,30.40
2022-09-11T16:28:30.026Z,31.36
2022-09-11T16:31:34.266Z,31.22
2022-09-11T16:34:37.424Z,30.28
2022-09-11T16:37:40.434Z,30.56
2022-09-11T16:40:43.441Z,30.28
2022-09-11T16:43:48.716Z,31.18
2022-09-11T16:46:51.738Z,31.21
2022-09-11T16:50:10.339Z,31.55
2022-09-11T16:53:13.481Z,31.97
2022-09-11T16:56:22.900Z,31.10
2022-09-11T16:59:26.044Z,30.72
2022-09-11T17:02:29.078Z,30.79
2022-09-11T17:05:32.141Z,31.10
2022-09-11T17:08:35.803Z,30.72
2022-09-11T17:11:38.913Z,30.67
2022-09-11T17:14:42.060Z,29.85
2022-09-11T17:17:45.226Z,30.12
2022-09-11T17:20:48.322Z,31.32
2022-09-11T17:23:52.820Z,31.86
2022-09-11T17:26:57.102Z,31.07
2022-09-11T17:30:00.364Z,30.85
2022-09-11T17:33:03.578Z,31.13
2022-09-11T17:36:08.007Z,31.37
2022-09-11T17:39:11.197Z,31.79
2022-09-11T17:42:14.227Z,32.37
2022-09-11T17:45:17.375Z,31.29
2022-09-11T17:48:21.326Z,31.42
2022-09-11T17:51:26.384Z,32.33
2022-09-11T17:54:29.455Z,32.72
2022-09-11T17:57:32.621Z,31.91
2022-09-11T18:00:35.738Z,32.37
2022-09-11T18:03:39.044Z,32.23
2022-09-11T18:06:42.103Z,32.27
2022-09-11T18:09:45.809Z,32.59
2022-09-11T18:12:48.876Z,31.84
2022-09-11T18:15:51.941Z,32.30
2022-09-11T18:18:55.233Z,31.98
2022-09-11T18:21:59.826Z,31.18
2022-09-11T18:25:03.007Z,31.53
2022-09-11T18:28:06.459Z,32.19
2022-09-11T18:31:09.945Z,31.75
2022-09-11T18:34:15.392Z,32.38
2022-09-11T18:37:18.440Z,32.57
2022-09-11T18:40:21.508Z,32.86
2022-09-11T18:43:24.830Z,32.00
2022-09-11T18:46:28.398Z,31.62
2022-09-11T18:49:31.563Z,31.27
2022-09-11T18:52:34.604Z,31.53
2022-09-11T18:55:37.655Z,31.72
2022-09-11T18:58:41.085Z,32.22
2022-09-11T19:01:44.246Z,31.84
2022-09-11T19:04:48.494Z,31.46
2022-09-11T19:07:51.985Z,31.53
2022-09-11T19:10:55.070Z,31.00
2022-09-11T19:14:06.219Z,30.90
2022-09-11T19:17:09.279Z,31.17
2022-09-11T19:20:12.437Z,31.03
2022-09-11T19:23:15.558Z,31.69
2022-09-11T19:26:24.031Z,31.85
2022-09-11T19:29:27.157Z,31.31
2022-09-11T19:32:30.257Z,31.31
2022-09-11T19:35:33.235Z,31.68
2022-09-11T19:38:37.932Z,31.90
2022-09-11T19:41:41.131Z,31.76
2022-09-11T19:44:44.475Z,32.22
2022-09-11T19:47:47.839Z,32.09
2022-09-11T19:50:50.846Z,31.75
2022-09-11T19:53:55.264Z,32.25
2022-09-11T19:57:00.246Z,32.27
2022-09-11T20:00:03.887Z,31.85
2022-09-11T20:03:07.012Z,31.53
2022-09-11T20:06:10.748Z,31.26
2022-09-11T20:09:30.954Z,30.98
2022-09-11T20:12:35.033Z,31.47
2022-09-11T20:15:39.304Z,32.19
2022-09-11T20:18:43.077Z,31.74
2022-09-11T20:21:46.232Z,32.10
2022-09-11T20:24:49.476Z,32.04
2022-09-11T20:27:52.630Z,32.02
2022-09-11T20:30:56.250Z,31.66
2022-09-11T20:34:00.610Z,31.79
2022-09-11T20:37:08.144Z,31.68
2022-09-11T20:40:13.204Z,31.91
2022-09-11T20:43:16.821Z,32.27
2022-09-11T20:46:19.953Z,32.31
2022-09-11T20:49:23.085Z,32.05
2022-09-11T20:52:29.119Z,31.95
2022-09-11T20:55:33.159Z,32.18
2022-09-11T20:58:37.532Z,32.40
2022-09-11T21:01:41.669Z,31.90
2022-09-11T21:04:44.930Z,31.64
2022-09-11T21:07:48.166Z,32.05
2022-09-11T21:10:51.205Z,32.18
2022-09-11T21:13:55.800Z,31.87
2022-09-11T21:16:58.922Z,31.63
2022-09-11T21:20:01.974Z,31.54
2022-09-11T21:23:05.742Z,31.85
2022-09-11T21:26:12.718Z,32.05
2022-09-11T21:29:15.782Z,31.94
2022-09-11T21:32:18.828Z,32.01
2022-09-11T21:35:22.092Z,32.01
2022-09-11T21:38:26.891Z,32.03
2022-09-11T21:41:32.041Z,32.01
2022-09-11T21:44:35.142Z,32.12
2022-09-11T21:47:38.559Z,31.88
2022-09-11T21:50:41.930Z,31.77
2022-09-11T21:53:48.497Z,31.69
2022-09-11T21:56:51.552Z,30.92
2022-09-11T21:59:55.104Z,31.08
2022-09-11T22:02:58.246Z,31.29
2022-09-11T22:06:06.957Z,31.55
2022-09-11T22:09:10.002Z,31.60
2022-09-11T22:12:13.226Z,31.49
2022-09-11T22:15:16.284Z,31.28
2022-09-11T22:18:19.748Z,31.25
2022-09-11T22:21:23.348Z,31.22
2022-09-11T22:24:30.029Z,31.39
2022-09-11T22:27:33.411Z,31.39
2022-09-11T22:30:36.779Z,31.47
2022-09-11T22:33:41.182Z,30.99
2022-09-11T22:36:44.303Z,31.08
2022-09-11T22:39:47.378Z,31.37
2022-09-11T22:42:50.456Z,31.33
2022-09-11T22:45:54.003Z,31.39
2022-09-11T22:48:58.198Z,31.41
2022-09-11T22:52:01.521Z,31.43
2022-09-11T22:55:06.266Z,31.19
2022-09-11T22:58:09.542Z,31.05
2022-09-11T23:01:13.691Z,30.75
2022-09-11T23:04:16.971Z,30.99
2022-09-11T23:07:20.063Z,31.13
2022-09-11T23:10:23.251Z,31.24
2022-09-11T23:13:26.918Z,31.31
2022-09-11T23:16:30.495Z,31.22
2022-09-11T23:19:33.761Z,31.28
2022-09-11T23:22:37.045Z,31.09
2022-09-11T23:25:40.608Z,30.84
2022-09-11T23:28:43.948Z,30.74
2022-09-11T23:31:47.124Z,30.81
2022-09-11T23:34:50.226Z,30.70
2022-09-11T23:37:53.273Z,30.54
2022-09-11T23:40:56.336Z,30.50
2022-09-11T23:43:59.815Z,30.28
2022-09-11T23:47:02.878Z,30.09
2022-09-11T23:50:07.050Z,29.86
2022-09-11T23:53:10.277Z,29.52
2022-09-11T23:56:14.533Z,29.57
2022-09-11T23:59:17.722Z,29.33
